Time;durP1;ratioP1;P1;durP2;ratioP2;P2;SDS_P1;SDS_P2;PMS_P1;PMS_P2;Temp;Humidity;BMP_temperature;BMP_pressure;BME280_temperature;BME280_humidity;BME280_pressure;Samples;Min_cycle;Max_cycle;Signal;HPM_P1;HPM_P2
2023/05/27 00:02:23;;;;;;;4.25;1.70;;;19.40;63.30;;;;;;5005364;28;20030;-67
2023/05/27 00:04:49;;;;;;;3.92;2.35;;;19.40;63.30;;;;;;5003824;28;20501;-67
2023/05/27 00:07:14;;;;;;;3.65;1.83;;;19.40;63.20;;;;;;5002339;28;20106;-67
2023/05/27 00:09:40;;;;;;;4.35;2.10;;;19.50;63.20;;;;;;5001648;28;20034;-67
2023/05/27 00:12:05;;;;;;;3.58;2.00;;;19.40;63.10;;;;;;5000967;28;20023;-68
2023/05/27 00:14:31;;;;;;;5.97;2.17;;;19.50;63.10;;;;;;5005372;28;20030;-67
2023/05/27 00:16:57;;;;;;;4.95;2.20;;;19.50;63.20;;;;;;4998510;28;20045;-68
2023/05/27 00:19:24;;;;;;;4.47;2.40;;;19.50;63.10;;;;;;5005245;28;20042;-67
2023/05/27 00:21:52;;;;;;;3.25;1.90;;;19.40;63.10;;;;;;5003070;28;20040;-67
2023/05/27 00:24:18;;;;;;;2.83;2.00;;;19.50;63.20;;;;;;5004615;28;20084;-66
2023/05/27 00:26:43;;;;;;;2.97;2.13;;;19.40;63.00;;;;;;5005035;28;20033;-67
2023/05/27 00:29:09;;;;;;;3.65;1.92;;;19.40;63.00;;;;;;5004799;28;20481;-66
2023/05/27 00:31:34;;;;;;;3.78;2.03;;;19.50;63.10;;;;;;5004454;28;20026;-68
2023/05/27 00:34:00;;;;;;;3.78;2.47;;;19.40;63.00;;;;;;5003895;28;20325;-67
2023/05/27 00:36:25;;;;;;;3.53;2.22;;;19.50;63.20;;;;;;5001049;28;20026;-67
2023/05/27 00:38:51;;;;;;;3.80;2.45;;;19.50;63.10;;;;;;5004446;28;20018;-67
2023/05/27 00:41:17;;;;;;;6.38;2.47;;;19.40;63.10;;;;;;4994678;28;20039;-65
2023/05/27 00:43:42;;;;;;;4.32;2.20;;;19.40;63.10;;;;;;5001007;28;20489;-67
2023/05/27 00:46:08;;;;;;;3.53;2.50;;;19.40;63.10;;;;;;5001195;28;20027;-67
2023/05/27 00:48:34;;;;;;;2.85;1.83;;;19.40;63.00;;;;;;5003444;28;20049;-68
2023/05/27 00:50:59;;;;;;;3.22;2.00;;;19.40;63.10;;;;;;5004718;28;20036;-68
2023/05/27 00:53:25;;;;;;;2.30;1.83;;;19.40;63.10;;;;;;5004748;28;20271;-67
2023/05/27 00:55:54;;;;;;;3.97;2.15;;;19.40;63.00;;;;;;5003971;28;20164;-67
2023/05/27 00:58:21;;;;;;;2.67;1.88;;;19.40;63.70;;;;;;5004641;28;20038;-67
2023/05/27 01:00:47;;;;;;;4.95;2.45;;;19.40;63.10;;;;;;5005931;28;20042;-67
2023/05/27 01:03:13;;;;;;;3.85;2.22;;;19.40;63.00;;;;;;5006688;28;20034;-67
2023/05/27 01:05:39;;;;;;;3.42;2.15;;;19.40;63.00;;;;;;5001528;28;20038;-67
2023/05/27 01:08:23;;;;;;;3.28;1.85;;;19.40;63.70;;;;;;5000727;28;20448;-67
2023/05/27 01:10:51;;;;;;;3.42;1.98;;;19.40;63.10;;;;;;5001620;28;20041;-67
2023/05/27 01:13:35;;;;;;;3.05;1.80;;;19.40;63.10;;;;;;4996782;28;20050;-67
2023/05/27 01:16:05;;;;;;;4.20;2.00;;;19.40;63.10;;;;;;4994713;28;20049;-67
2023/05/27 01:18:33;;;;;;;4.13;2.15;;;19.40;63.10;;;;;;4998489;28;20033;-67
2023/05/27 01:21:05;;;;;;;2.88;2.00;;;19.40;63.10;;;;;;5004167;28;20109;-67
2023/05/27 01:23:31;;;;;;;4.82;1.70;;;19.40;63.00;;;;;;5003247;28;20045;-67
2023/05/27 01:25:57;;;;;;;3.85;2.20;;;19.40;63.00;;;;;;5004607;28;20030;-68
2023/05/27 01:28:22;;;;;;;3.20;2.20;;;19.30;63.00;;;;;;5018587;28;20045;-67
2023/05/27 01:30:51;;;;;;;3.35;1.85;;;19.30;62.90;;;;;;5003914;28;20045;-67
2023/05/27 01:33:26;;;;;;;2.72;1.73;;;19.30;62.90;;;;;;5002711;28;20519;-66
2023/05/27 01:35:58;;;;;;;2.63;1.73;;;19.30;62.90;;;;;;4995056;28;20030;-67
2023/05/27 01:38:26;;;;;;;3.85;1.80;;;19.30;62.90;;;;;;5003654;28;20040;-68
2023/05/27 01:40:52;;;;;;;2.50;1.70;;;19.30;63.00;;;;;;4999036;28;20034;-67
2023/05/27 01:43:18;;;;;;;4.10;2.08;;;19.30;62.90;;;;;;4998045;28;20704;-67
2023/05/27 01:45:44;;;;;;;2.10;1.60;;;19.30;62.90;;;;;;5002944;28;20404;-67
2023/05/27 01:48:10;;;;;;;4.03;2.20;;;19.30;63.00;;;;;;5000116;28;20042;-67
2023/05/27 01:50:36;;;;;;;2.85;1.73;;;19.30;63.00;;;;;;5000819;28;20038;-67
2023/05/27 01:53:03;;;;;;;2.83;1.75;;;19.30;63.00;;;;;;5003835;28;20033;-67
2023/05/27 01:55:30;;;;;;;2.58;2.03;;;19.30;63.00;;;;;;5003958;28;20116;-66
2023/05/27 01:57:56;;;;;;;6.05;2.50;;;19.20;62.90;;;;;;5004748;28;20038;-68
2023/05/27 02:00:23;;;;;;;2.42;1.67;;;19.30;63.00;;;;;;5003156;28;20527;-66
2023/05/27 02:02:48;;;;;;;2.72;2.00;;;19.20;62.90;;;;;;5003264;28;20091;-66
2023/05/27 02:05:14;;;;;;;3.63;2.10;;;19.20;62.90;;;;;;5002503;28;20117;-67
2023/05/27 02:07:39;;;;;;;2.33;1.63;;;19.20;62.90;;;;;;4998684;28;20504;-67
2023/05/27 02:10:05;;;;;;;2.58;1.55;;;19.20;62.90;;;;;;5001305;28;20121;-67
2023/05/27 02:12:31;;;;;;;3.13;1.80;;;19.20;62.90;;;;;;5002515;28;20542;-66
2023/05/27 02:14:56;;;;;;;3.28;1.75;;;19.20;62.90;;;;;;5000374;28;20034;-66
2023/05/27 02:17:24;;;;;;;2.65;1.60;;;19.20;62.90;;;;;;5006131;28;20053;-67
2023/05/27 02:19:50;;;;;;;2.38;1.95;;;19.20;62.90;;;;;;5007205;28;20132;-67
2023/05/27 02:22:15;;;;;;;3.90;2.08;;;19.20;62.90;;;;;;5007745;28;20492;-67
2023/05/27 02:24:41;;;;;;;2.85;1.75;;;19.20;62.90;;;;;;5007274;28;20112;-67
2023/05/27 02:27:06;;;;;;;3.40;1.75;;;19.20;62.90;;;;;;5007191;28;20037;-68
2023/05/27 02:29:32;;;;;;;3.17;2.10;;;19.20;62.90;;;;;;5006663;28;20042;-68
2023/05/27 02:31:57;;;;;;;2.55;1.63;;;19.20;62.90;;;;;;5004918;28;20140;-68
2023/05/27 02:34:23;;;;;;;2.45;1.65;;;19.20;62.90;;;;;;5003940;28;20460;-67
2023/05/27 02:36:48;;;;;;;3.17;1.88;;;19.20;62.90;;;;;;5007174;28;20037;-68
2023/05/27 02:39:14;;;;;;;4.50;2.22;;;19.20;62.90;;;;;;5003837;28;20033;-67
2023/05/27 02:41:40;;;;;;;3.72;2.17;;;19.20;62.90;;;;;;5008582;28;20034;-66
2023/05/27 02:44:05;;;;;;;2.97;1.83;;;19.20;62.90;;;;;;5003402;28;20049;-67
2023/05/27 02:46:31;;;;;;;5.22;2.38;;;19.20;62.90;;;;;;5005752;28;20215;-68
2023/05/27 02:48:56;;;;;;;2.40;1.63;;;19.20;63.00;;;;;;5007361;28;20059;-67
2023/05/27 02:51:22;;;;;;;4.65;2.28;;;19.20;62.90;;;;;;5006614;28;20711;-67
2023/05/27 02:53:49;;;;;;;3.60;2.00;;;19.20;62.90;;;;;;5006491;28;20552;-67
2023/05/27 02:56:14;;;;;;;4.82;1.80;;;19.20;62.90;;;;;;5004858;28;20053;-67
2023/05/27 02:58:40;;;;;;;4.22;2.30;;;19.10;62.90;;;;;;5006092;28;20983;-67
2023/05/27 03:01:05;;;;;;;3.67;2.20;;;19.20;62.90;;;;;;5004680;28;20265;-67
2023/05/27 03:03:31;;;;;;;4.63;2.28;;;19.10;62.90;;;;;;5005942;28;20052;-67
2023/05/27 03:05:56;;;;;;;2.53;1.70;;;19.10;62.90;;;;;;5007127;28;20018;-68
2023/05/27 03:08:22;;;;;;;4.30;2.20;;;19.10;62.90;;;;;;4998363;28;20045;-67
2023/05/27 03:10:47;;;;;;;3.80;2.15;;;19.10;62.90;;;;;;5003130;28;20093;-68
2023/05/27 03:13:13;;;;;;;4.13;1.90;;;19.10;62.90;;;;;;5006037;28;20030;-67
2023/05/27 03:15:39;;;;;;;3.65;1.92;;;19.10;62.90;;;;;;5004796;28;20029;-67
2023/05/27 03:18:04;;;;;;;5.18;2.08;;;19.10;62.90;;;;;;5006067;28;20200;-68
2023/05/27 03:20:30;;;;;;;3.95;2.25;;;19.10;62.90;;;;;;5005080;28;20409;-67
2023/05/27 03:22:56;;;;;;;4.40;1.98;;;19.10;62.90;;;;;;5006500;28;20506;-66
2023/05/27 03:25:22;;;;;;;4.50;1.90;;;19.10;62.90;;;;;;5006385;28;20038;-67
2023/05/27 03:27:47;;;;;;;3.38;1.60;;;19.10;62.90;;;;;;5005333;28;20180;-68
2023/05/27 03:30:13;;;;;;;4.13;2.25;;;19.10;62.90;;;;;;5005428;28;20511;-67
2023/05/27 03:32:38;;;;;;;4.18;2.28;;;19.10;62.80;;;;;;5007047;28;20539;-67
2023/05/27 03:35:04;;;;;;;3.20;2.13;;;19.10;62.80;;;;;;5007178;28;20156;-67
2023/05/27 03:37:30;;;;;;;4.15;2.22;;;19.10;62.80;;;;;;4999148;28;20551;-67
2023/05/27 03:39:55;;;;;;;3.92;2.35;;;19.10;62.80;;;;;;5003278;28;20121;-67
2023/05/27 03:42:21;;;;;;;4.13;2.13;;;19.10;62.90;;;;;;5005778;28;20626;-67
2023/05/27 03:44:46;;;;;;;4.18;1.73;;;19.10;62.80;;;;;;5004767;28;20125;-68
2023/05/27 03:47:12;;;;;;;5.57;2.25;;;19.10;62.90;;;;;;5005443;28;20142;-67
2023/05/27 03:49:37;;;;;;;4.22;1.85;;;19.10;62.80;;;;;;5004527;28;20042;-67
2023/05/27 03:52:03;;;;;;;2.80;1.90;;;19.10;62.80;;;;;;5005123;28;20038;-67
2023/05/27 03:54:29;;;;;;;3.67;2.22;;;19.10;62.80;;;;;;5006345;28;20044;-69
2023/05/27 03:56:54;;;;;;;3.45;1.92;;;19.00;62.80;;;;;;5005345;28;20463;-67
2023/05/27 03:59:20;;;;;;;5.53;2.05;;;19.10;62.80;;;;;;5004062;28;20117;-66
2023/05/27 04:01:46;;;;;;;3.80;2.20;;;19.10;62.80;;;;;;5001111;28;20029;-67
2023/05/27 04:04:12;;;;;;;2.92;1.67;;;19.10;62.70;;;;;;4998174;28;20030;-68
2023/05/27 04:06:38;;;;;;;2.10;1.52;;;19.10;62.70;;;;;;5001785;28;20443;-67
2023/05/27 04:09:04;;;;;;;4.70;2.08;;;19.10;62.70;;;;;;5000441;28;20397;-67
2023/05/27 04:11:30;;;;;;;4.32;2.30;;;19.10;62.70;;;;;;5005100;28;20645;-69
2023/05/27 04:13:55;;;;;;;2.80;2.05;;;19.10;62.70;;;;;;5005220;28;20388;-67
2023/05/27 04:16:24;;;;;;;3.42;2.30;;;19.10;62.70;;;;;;5005050;28;20033;-67
2023/05/27 04:18:51;;;;;;;3.17;1.90;;;19.10;62.70;;;;;;5004278;28;20080;-67
2023/05/27 04:21:19;;;;;;;4.35;2.30;;;19.10;62.70;;;;;;5005695;28;20037;-67
2023/05/27 04:23:45;;;;;;;4.18;2.25;;;19.10;62.80;;;;;;5005015;28;20503;-68
2023/05/27 04:26:11;;;;;;;5.35;2.13;;;19.10;62.70;;;;;;5005861;28;20045;-68
2023/05/27 04:28:39;;;;;;;4.53;2.33;;;19.10;62.70;;;;;;5004299;28;20107;-67
2023/05/27 04:31:04;;;;;;;4.07;2.30;;;19.10;62.70;;;;;;5001332;28;20026;-68
2023/05/27 04:33:30;;;;;;;4.40;2.35;;;19.10;62.60;;;;;;5004773;28;20310;-69
2023/05/27 04:35:56;;;;;;;3.70;1.70;;;19.10;62.50;;;;;;5002555;28;20033;-67
2023/05/27 04:38:22;;;;;;;5.07;2.25;;;19.10;62.50;;;;;;5000578;28;20037;-65
2023/05/27 04:40:53;;;;;;;3.75;2.60;;;19.20;62.60;;;;;;5000718;28;20045;-68
2023/05/27 04:43:19;;;;;;;3.28;2.00;;;19.20;62.50;;;;;;5001338;28;20038;-65
2023/05/27 04:45:46;;;;;;;3.05;1.80;;;19.20;62.50;;;;;;5004678;28;20416;-68
2023/05/27 04:48:11;;;;;;;4.53;2.05;;;19.20;62.40;;;;;;5004582;28;20034;-67
2023/05/27 04:50:37;;;;;;;5.18;2.10;;;19.20;62.50;;;;;;5003641;28;20475;-67
2023/05/27 04:53:03;;;;;;;3.63;2.00;;;19.20;62.40;;;;;;5004517;28;20036;-72
2023/05/27 04:55:29;;;;;;;4.07;2.15;;;19.30;62.30;;;;;;5004385;28;20120;-66
2023/05/27 04:57:56;;;;;;;2.55;2.35;;;19.20;62.30;;;;;;5004034;28;20022;-67
2023/05/27 05:00:36;;;;;;;3.88;2.17;;;19.30;62.40;;;;;;5003694;28;20061;-65
2023/05/27 05:03:02;;;;;;;3.22;2.03;;;19.30;62.30;;;;;;5002911;28;20064;-67
2023/05/27 05:05:28;;;;;;;4.32;2.10;;;19.30;62.30;;;;;;4999400;28;20053;-65
2023/05/27 05:07:54;;;;;;;5.25;2.05;;;19.30;62.30;;;;;;5001179;28;20123;-66
2023/05/27 05:10:20;;;;;;;4.55;1.90;;;19.30;62.50;;;;;;4996945;28;20363;-65
2023/05/27 05:12:45;;;;;;;3.13;2.13;;;19.30;62.40;;;;;;5004024;28;20057;-67
2023/05/27 05:15:11;;;;;;;3.70;2.20;;;19.30;62.30;;;;;;5004450;28;20034;-67
2023/05/27 05:17:36;;;;;;;4.47;1.63;;;19.30;62.50;;;;;;5004127;28;20293;-67
2023/05/27 05:20:03;;;;;;;2.58;1.90;;;19.30;62.30;;;;;;5002386;28;20041;-67
2023/05/27 05:22:28;;;;;;;3.38;2.05;;;19.30;62.40;;;;;;5004670;28;20092;-66
2023/05/27 05:24:54;;;;;;;4.68;2.30;;;19.30;62.40;;;;;;5004969;28;20030;-67
2023/05/27 05:27:20;;;;;;;3.55;1.90;;;19.30;62.30;;;;;;5002569;28;20041;-66
2023/05/27 05:29:45;;;;;;;3.17;2.00;;;19.40;62.50;;;;;;5003465;28;20062;-67
2023/05/27 05:32:11;;;;;;;3.08;1.92;;;19.30;62.30;;;;;;5002447;28;20048;-67
2023/05/27 05:34:37;;;;;;;3.20;2.13;;;19.40;62.40;;;;;;4999333;28;20499;-66
2023/05/27 05:37:03;;;;;;;4.07;2.05;;;19.30;62.50;;;;;;4995967;28;20057;-67
2023/05/27 05:39:29;;;;;;;4.40;1.92;;;19.30;62.40;;;;;;5003344;28;20037;-66
2023/05/27 05:41:56;;;;;;;3.67;2.15;;;19.40;62.50;;;;;;5003576;28;20025;-69
2023/05/27 05:44:22;;;;;;;4.97;2.28;;;19.40;62.40;;;;;;5004113;28;20048;-66
2023/05/27 05:46:48;;;;;;;3.38;1.90;;;19.40;62.40;;;;;;5005715;28;20335;-67
2023/05/27 05:49:13;;;;;;;4.50;1.73;;;19.40;62.50;;;;;;5003886;28;20079;-68
2023/05/27 05:51:39;;;;;;;4.90;2.15;;;19.30;62.50;;;;;;5001818;28;20546;-67
2023/05/27 05:54:04;;;;;;;4.28;1.88;;;19.40;62.50;;;;;;5003728;28;20317;-67
2023/05/27 05:56:30;;;;;;;2.38;1.88;;;19.30;62.50;;;;;;5001491;28;20033;-68
2023/05/27 05:58:55;;;;;;;3.45;1.60;;;19.40;62.60;;;;;;5003446;28;20030;-66
2023/05/27 06:01:21;;;;;;;3.65;1.77;;;19.40;63.20;;;;;;5001412;28;20030;-66
2023/05/27 06:03:46;;;;;;;4.03;2.25;;;19.30;62.50;;;;;;5002245;28;20696;-67
2023/05/27 06:06:12;;;;;;;4.13;2.30;;;19.30;62.40;;;;;;5001077;28;20592;-67
2023/05/27 06:08:37;;;;;;;4.47;2.15;;;19.30;62.50;;;;;;5003412;28;20591;-67
2023/05/27 06:11:03;;;;;;;3.80;1.70;;;19.30;62.50;;;;;;5003814;28;20458;-67
2023/05/27 06:13:28;;;;;;;3.70;2.10;;;19.30;62.40;;;;;;5003059;28;20030;-66
2023/05/27 06:15:57;;;;;;;3.08;2.05;;;19.30;62.50;;;;;;4999677;28;20577;-67
2023/05/27 06:18:22;;;;;;;2.55;1.70;;;19.30;62.50;;;;;;5001629;28;20034;-67
2023/05/27 06:20:48;;;;;;;3.13;1.70;;;19.30;62.60;;;;;;5003202;28;20034;-67
2023/05/27 06:23:13;;;;;;;2.60;1.83;;;19.30;63.00;;;;;;5004067;28;20041;-67
2023/05/27 06:25:39;;;;;;;4.03;1.95;;;19.30;62.50;;;;;;5001094;28;20041;-67
2023/05/27 06:28:05;;;;;;;2.67;2.15;;;19.30;62.60;;;;;;5006656;28;20037;-66
2023/05/27 06:30:32;;;;;;;2.60;1.67;;;19.30;62.50;;;;;;4999617;28;20505;-67
2023/05/27 06:32:57;;;;;;;2.90;2.30;;;19.30;62.50;;;;;;4999618;28;20091;-67
2023/05/27 06:35:23;;;;;;;3.38;2.17;;;19.30;62.50;;;;;;4997791;28;20038;-66
2023/05/27 06:37:48;;;;;;;3.10;2.00;;;19.30;62.50;;;;;;5003007;28;20069;-67
2023/05/27 06:40:14;;;;;;;3.13;1.95;;;19.30;62.60;;;;;;5002382;28;20033;-67
2023/05/27 06:42:39;;;;;;;4.18;2.30;;;19.30;62.50;;;;;;5002143;28;20046;-67
2023/05/27 06:45:05;;;;;;;2.92;1.80;;;19.30;62.50;;;;;;5003009;28;20037;-67
2023/05/27 06:47:31;;;;;;;3.55;1.95;;;19.30;62.50;;;;;;5002576;28;20091;-67
2023/05/27 06:49:56;;;;;;;4.03;1.77;;;19.30;62.50;;;;;;5002955;28;20507;-66
2023/05/27 06:52:22;;;;;;;3.55;2.42;;;19.30;62.50;;;;;;5003280;28;20348;-67
2023/05/27 06:54:47;;;;;;;3.00;1.90;;;19.30;62.60;;;;;;5000723;28;20294;-67
2023/05/27 06:57:13;;;;;;;4.47;1.95;;;19.30;62.60;;;;;;5000733;28;20030;-67
2023/05/27 06:59:39;;;;;;;3.67;1.92;;;19.20;62.60;;;;;;4997952;28;20061;-69
2023/05/27 07:02:06;;;;;;;4.13;1.85;;;19.30;62.70;;;;;;5002991;28;20033;-67
2023/05/27 07:04:31;;;;;;;5.78;1.88;;;19.30;62.70;;;;;;5005102;28;20421;-67
2023/05/27 07:06:57;;;;;;;3.10;2.65;;;19.20;62.40;;;;;;5004328;28;20034;-67
2023/05/27 07:09:22;;;;;;;4.38;2.05;;;19.20;62.60;;;;;;5002764;28;20125;-68
2023/05/27 07:11:48;;;;;;;3.60;1.90;;;19.20;62.60;;;;;;5006188;28;20030;-67
2023/05/27 07:14:14;;;;;;;4.32;2.15;;;19.30;62.60;;;;;;5007178;28;20064;-70
2023/05/27 07:16:40;;;;;;;4.80;1.90;;;19.30;62.50;;;;;;5006108;28;20034;-67
2023/05/27 07:19:06;;;;;;;3.20;2.00;;;19.20;62.60;;;;;;5006765;28;20032;-68
2023/05/27 07:21:32;;;;;;;4.13;1.70;;;19.20;62.60;;;;;;5006457;28;20034;-66
2023/05/27 07:23:58;;;;;;;3.05;1.77;;;19.20;62.60;;;;;;5006111;28;20029;-66
2023/05/27 07:26:25;;;;;;;3.85;2.08;;;19.20;62.70;;;;;;5003977;28;20050;-66
2023/05/27 07:28:51;;;;;;;3.80;1.65;;;19.20;62.70;;;;;;5005218;28;20091;-67
2023/05/27 07:31:17;;;;;;;5.43;1.98;;;19.20;62.60;;;;;;5002281;28;20694;-67
2023/05/27 07:33:43;;;;;;;6.80;2.22;;;19.20;62.70;;;;;;4998192;28;20057;-67
2023/05/27 07:36:08;;;;;;;6.13;2.30;;;19.20;62.80;;;;;;5005006;28;20129;-65
2023/05/27 07:38:34;;;;;;;3.13;1.88;;;19.20;62.90;;;;;;5002354;28;20640;-65
2023/05/27 07:40:59;;;;;;;4.75;2.25;;;19.20;62.90;;;;;;5004161;28;20528;-67
2023/05/27 07:43:25;;;;;;;8.75;2.17;;;19.20;63.10;;;;;;5005540;28;20024;-63
2023/05/27 07:45:50;;;;;;;5.00;1.95;;;19.20;63.00;;;;;;5005371;28;20041;-65
2023/05/27 07:48:15;;;;;;;7.97;2.20;;;19.20;63.10;;;;;;5006239;28;20424;-66
2023/05/27 07:50:41;;;;;;;8.75;2.28;;;19.20;63.20;;;;;;5004660;28;20038;-65
2023/05/27 07:53:06;;;;;;;5.68;2.50;;;19.20;63.10;;;;;;4992162;28;20578;-62
2023/05/27 07:55:32;;;;;;;8.43;2.50;;;19.20;63.20;;;;;;5002135;28;20038;-66
2023/05/27 07:57:57;;;;;;;6.70;2.38;;;19.20;63.40;;;;;;5001767;28;20038;-66
2023/05/27 08:00:23;;;;;;;6.40;2.22;;;19.20;63.50;;;;;;4997686;28;20472;-66
2023/05/27 08:02:48;;;;;;;6.15;2.20;;;19.20;63.50;;;;;;4999054;28;20121;-65
2023/05/27 08:05:14;;;;;;;5.55;2.25;;;19.20;63.40;;;;;;4995997;28;20398;-64
2023/05/27 08:07:39;;;;;;;7.05;2.58;;;19.20;63.50;;;;;;5002359;28;20037;-64
2023/05/27 08:10:06;;;;;;;4.25;2.28;;;19.20;63.50;;;;;;5004997;28;20028;-65
2023/05/27 08:12:32;;;;;;;4.38;2.00;;;19.20;63.30;;;;;;5004327;28;20034;-66
2023/05/27 08:14:57;;;;;;;6.07;2.65;;;19.20;63.50;;;;;;5005007;28;20053;-66
2023/05/27 08:17:23;;;;;;;6.18;2.60;;;19.20;63.30;;;;;;5004578;28;20030;-66
2023/05/27 08:19:48;;;;;;;5.68;3.05;;;19.20;63.40;;;;;;5004141;28;20034;-64
2023/05/27 08:22:14;;;;;;;6.22;2.45;;;19.20;63.30;;;;;;5002012;28;20030;-65
2023/05/27 08:24:39;;;;;;;6.47;2.35;;;19.20;63.30;;;;;;5001251;28;20117;-66
2023/05/27 08:27:11;;;;;;;4.78;2.03;;;19.20;63.30;;;;;;5000960;28;20042;-66
2023/05/27 08:29:36;;;;;;;6.75;2.50;;;19.20;63.30;;;;;;4999393;28;20026;-66
2023/05/27 08:32:02;;;;;;;7.00;2.10;;;19.20;63.30;;;;;;5001846;28;20040;-65
2023/05/27 08:34:27;;;;;;;3.90;2.00;;;19.20;63.30;;;;;;5005043;28;20643;-65
2023/05/27 08:36:53;;;;;;;5.30;2.15;;;19.20;63.10;;;;;;5005275;28;20492;-67
2023/05/27 08:39:20;;;;;;;4.85;2.42;;;19.20;63.20;;;;;;5008457;28;20072;-67
2023/05/27 08:41:45;;;;;;;5.63;2.58;;;19.10;63.00;;;;;;5004802;28;20036;-66
2023/05/27 08:44:11;;;;;;;3.65;1.83;;;19.10;63.00;;;;;;5004949;28;20030;-66
2023/05/27 08:46:36;;;;;;;5.70;2.28;;;19.20;63.00;;;;;;5004080;28;20037;-66
2023/05/27 08:49:02;;;;;;;6.63;2.10;;;19.10;62.80;;;;;;5004753;28;20030;-66
2023/05/27 08:51:28;;;;;;;6.78;3.33;;;19.10;62.80;;;;;;5003830;28;20026;-64
2023/05/27 08:53:54;;;;;;;6.03;2.20;;;19.20;62.80;;;;;;5002543;28;20031;-67
2023/05/27 08:56:21;;;;;;;7.38;2.67;;;19.10;62.70;;;;;;5003220;28;20129;-65
2023/05/27 08:58:46;;;;;;;6.78;2.20;;;19.10;62.50;;;;;;5000038;28;20034;-64
2023/05/27 09:01:15;;;;;;;5.20;2.38;;;19.10;62.40;;;;;;4998993;28;20488;-67
2023/05/27 09:03:41;;;;;;;4.60;2.50;;;19.10;62.30;;;;;;5001664;28;20044;-66
2023/05/27 09:06:06;;;;;;;5.88;2.55;;;19.10;62.20;;;;;;5004590;28;20046;-67
2023/05/27 09:08:32;;;;;;;12.52;3.97;;;19.10;62.20;;;;;;4998406;28;20030;-66
2023/05/27 09:10:57;;;;;;;6.20;2.30;;;19.10;62.10;;;;;;5000007;28;20033;-67
2023/05/27 09:13:27;;;;;;;5.57;2.50;;;19.10;62.20;;;;;;5002266;28;20541;-66
2023/05/27 09:16:04;;;;;;;6.18;2.67;;;19.10;62.00;;;;;;5003167;28;20136;-66
2023/05/27 09:18:32;;;;;;;7.72;2.10;;;19.10;61.80;;;;;;4996802;28;20095;-67
2023/05/27 09:20:57;;;;;;;4.55;2.47;;;19.10;61.70;;;;;;5004195;28;20121;-67
2023/05/27 09:23:24;;;;;;;4.95;2.85;;;19.10;61.70;;;;;;4998782;28;20037;-67
2023/05/27 09:25:50;;;;;;;5.38;2.55;;;19.10;61.60;;;;;;5004483;28;20076;-67
2023/05/27 09:28:26;;;;;;;7.70;3.13;;;19.10;61.60;;;;;;4997944;28;20035;-67
2023/05/27 09:31:12;;;;;;;7.40;2.25;;;19.00;61.40;;;;;;4997685;28;20034;-66
2023/05/27 09:33:39;;;;;;;6.55;2.65;;;19.10;61.40;;;;;;4999009;28;20113;-66
2023/05/27 09:36:06;;;;;;;5.75;2.53;;;19.10;61.30;;;;;;5004471;28;20104;-67
2023/05/27 09:38:33;;;;;;;8.48;3.25;;;19.10;61.20;;;;;;5001315;28;20034;-66
2023/05/27 09:40:59;;;;;;;8.15;3.10;;;19.00;61.10;;;;;;5003267;28;20040;-66
2023/05/27 09:43:26;;;;;;;5.22;2.45;;;19.10;61.10;;;;;;5003770;28;20532;-66
2023/05/27 09:46:05;;;;;;;4.40;2.42;;;19.00;61.00;;;;;;5003325;28;20088;-66
2023/05/27 09:48:31;;;;;;;5.85;2.25;;;19.10;61.10;;;;;;5000005;28;20038;-65
2023/05/27 09:50:59;;;;;;;8.27;2.88;;;19.00;60.90;;;;;;5003601;28;20034;-67
2023/05/27 09:53:26;;;;;;;6.18;2.85;;;19.00;60.80;;;;;;5001507;28;20634;-64
2023/05/27 09:55:55;;;;;;;5.93;2.25;;;19.00;60.80;;;;;;4999522;28;20030;-65
2023/05/27 09:58:22;;;;;;;5.38;2.28;;;19.00;60.90;;;;;;4999425;28;20030;-65
2023/05/27 10:00:48;;;;;;;4.80;2.38;;;19.00;60.70;;;;;;4999578;28;20045;-65
2023/05/27 10:03:16;;;;;;;5.43;1.95;;;19.00;60.80;;;;;;5002373;28;20034;-65
2023/05/27 10:05:44;;;;;;;5.95;2.25;;;19.10;60.80;;;;;;5002979;28;20564;-65
2023/05/27 10:08:12;;;;;;;5.50;2.72;;;19.00;60.80;;;;;;5003723;28;20046;-66
2023/05/27 10:10:38;;;;;;;4.88;2.78;;;19.00;60.60;;;;;;5004139;28;20114;-67
2023/05/27 10:13:04;;;;;;;5.57;2.90;;;19.00;60.60;;;;;;5004053;28;20117;-66
2023/05/27 10:15:31;;;;;;;7.25;3.00;;;19.00;60.60;;;;;;5003941;28;20033;-64
2023/05/27 10:18:03;;;;;;;3.75;2.42;;;19.00;60.40;;;;;;4986576;28;20048;-65
2023/05/27 10:20:42;;;;;;;6.20;2.70;;;19.00;60.30;;;;;;4998711;28;20101;-64
2023/05/27 10:23:15;;;;;;;5.47;2.85;;;19.00;59.80;;;;;;4999836;28;20053;-65
2023/05/27 10:25:47;;;;;;;8.48;2.88;;;19.00;59.60;;;;;;5003140;28;20034;-66
2023/05/27 10:28:25;;;;;;;8.13;2.97;;;19.00;59.20;;;;;;5000575;28;20402;-63
2023/05/27 10:30:52;;;;;;;7.97;3.30;;;19.00;59.20;;;;;;4999801;28;20504;-65
2023/05/27 10:33:28;;;;;;;6.72;3.00;;;19.00;59.20;;;;;;5003047;28;20354;-66
2023/05/27 10:35:53;;;;;;;5.00;2.25;;;19.00;59.20;;;;;;5001226;28;20038;-66
2023/05/27 10:38:19;;;;;;;5.13;2.53;;;19.00;59.20;;;;;;5006348;28;20034;-67
2023/05/27 10:40:46;;;;;;;9.27;3.35;;;19.00;59.80;;;;;;5006587;28;20061;-65
2023/05/27 10:43:16;;;;;;;9.95;3.15;;;19.00;59.40;;;;;;5007530;28;20719;-66
2023/05/27 10:45:41;;;;;;;11.85;4.18;;;19.00;59.90;;;;;;5006057;28;20046;-63
2023/05/27 10:48:18;;;;;;;10.85;3.47;;;19.00;59.80;;;;;;5006733;28;20041;-66
2023/05/27 10:50:50;;;;;;;17.77;4.30;;;19.00;60.10;;;;;;5004814;28;20030;-65
2023/05/27 10:53:18;;;;;;;29.65;10.63;;;19.00;60.30;;;;;;5000019;28;20026;-63
2023/05/27 10:55:46;;;;;;;29.48;12.85;;;19.00;60.90;;;;;;5003675;28;20030;-65
2023/05/27 10:58:12;;;;;;;26.13;11.00;;;19.00;61.20;;;;;;4994045;28;20085;-64
2023/05/27 11:00:40;;;;;;;27.35;12.35;;;19.00;61.20;;;;;;5001534;28;20034;-65
2023/05/27 11:03:16;;;;;;;33.80;12.75;;;19.00;61.20;;;;;;5005874;28;20033;-63
2023/05/27 11:05:41;;;;;;;33.15;14.57;;;19.00;61.20;;;;;;5005093;28;20061;-65
2023/05/27 11:08:12;;;;;;;31.27;15.43;;;19.00;61.30;;;;;;5006551;28;20068;-63
2023/05/27 11:10:41;;;;;;;37.03;14.95;;;19.00;61.40;;;;;;5006967;28;20038;-65
2023/05/27 11:13:06;;;;;;;36.15;14.07;;;19.00;61.50;;;;;;5006191;28;20562;-63
2023/05/27 11:15:32;;;;;;;36.45;14.40;;;19.00;61.50;;;;;;5006539;28;20041;-63
2023/05/27 11:18:04;;;;;;;32.78;14.07;;;19.00;61.50;;;;;;5006761;28;20049;-66
2023/05/27 11:20:36;;;;;;;34.67;13.55;;;19.00;61.40;;;;;;4998979;28;20117;-66
2023/05/27 11:23:03;;;;;;;30.42;13.40;;;19.10;61.40;;;;;;5000577;28;20040;-66
2023/05/27 11:25:28;;;;;;;35.50;13.85;;;19.00;61.30;;;;;;5006088;28;20753;-65
2023/05/27 11:27:54;;;;;;;32.00;13.00;;;19.00;61.20;;;;;;5003389;28;20045;-66
2023/05/27 11:30:24;;;;;;;31.75;12.90;;;19.00;61.20;;;;;;5002697;28;20057;-66
2023/05/27 11:32:50;;;;;;;27.40;11.80;;;19.10;61.20;;;;;;5006472;28;20129;-67
2023/05/27 11:35:16;;;;;;;29.27;12.15;;;19.00;61.10;;;;;;5006324;28;20464;-64
2023/05/27 11:37:55;;;;;;;27.25;12.00;;;19.00;61.00;;;;;;4999204;28;20041;-63
2023/05/27 11:40:21;;;;;;;24.92;11.82;;;19.00;61.20;;;;;;5013232;28;20038;-65
2023/05/27 11:42:47;;;;;;;26.23;12.30;;;19.00;61.60;;;;;;5006171;28;20061;-65
2023/05/27 11:45:21;;;;;;;25.00;10.45;;;19.00;61.90;;;;;;5004854;28;20034;-65
2023/05/27 11:47:50;;;;;;;26.38;10.15;;;19.10;62.00;;;;;;5004403;28;22323;-64
2023/05/27 11:50:17;;;;;;;26.40;11.20;;;19.10;62.20;;;;;;5003645;28;20037;-65
2023/05/27 11:52:56;;;;;;;24.00;10.32;;;19.10;62.20;;;;;;5004051;28;20591;-69
2023/05/27 11:55:22;;;;;;;23.35;9.98;;;19.10;62.30;;;;;;5001457;28;20042;-65
2023/05/27 11:57:49;;;;;;;26.33;10.10;;;19.10;62.30;;;;;;5002914;28;20120;-66
2023/05/27 12:00:15;;;;;;;19.08;10.05;;;19.10;62.20;;;;;;5002071;28;20409;-66
2023/05/27 12:02:41;;;;;;;24.00;9.30;;;19.10;62.20;;;;;;5003854;28;20026;-65
2023/05/27 12:05:08;;;;;;;21.67;9.43;;;19.10;62.30;;;;;;5005458;28;20034;-63
2023/05/27 12:07:35;;;;;;;24.35;10.13;;;19.10;62.50;;;;;;5007874;28;20125;-66
2023/05/27 12:10:01;;;;;;;22.13;8.82;;;19.10;62.70;;;;;;5001575;28;20386;-65
2023/05/27 12:12:26;;;;;;;21.65;8.63;;;19.10;62.70;;;;;;5005811;28;20092;-66
2023/05/27 12:14:52;;;;;;;21.73;9.20;;;19.10;62.70;;;;;;5006134;28;20026;-65
2023/05/27 12:17:17;;;;;;;20.45;8.55;;;19.10;62.70;;;;;;5004524;28;20496;-66
2023/05/27 12:19:43;;;;;;;20.33;8.68;;;19.10;62.70;;;;;;5005731;28;20034;-66
2023/05/27 12:22:08;;;;;;;22.88;9.10;;;19.10;62.60;;;;;;5007585;28;20091;-66
2023/05/27 12:24:34;;;;;;;18.92;7.35;;;19.10;62.50;;;;;;5006354;28;20033;-66
2023/05/27 12:27:01;;;;;;;21.95;7.25;;;19.10;62.60;;;;;;5006702;28;20022;-66
2023/05/27 12:29:27;;;;;;;16.80;7.50;;;19.10;62.60;;;;;;5001402;28;20377;-64
2023/05/27 12:31:53;;;;;;;19.73;7.82;;;19.10;62.50;;;;;;5005845;28;20026;-65
2023/05/27 12:34:18;;;;;;;17.42;7.82;;;19.10;62.60;;;;;;5004060;28;20045;-66
2023/05/27 12:36:44;;;;;;;15.35;6.93;;;19.10;62.50;;;;;;5005526;28;20049;-66
2023/05/27 12:39:09;;;;;;;17.20;7.47;;;19.10;62.50;;;;;;5005575;28;20479;-66
2023/05/27 12:41:36;;;;;;;18.27;7.00;;;19.10;62.50;;;;;;5003025;28;20014;-66
2023/05/27 12:44:02;;;;;;;14.18;6.85;;;19.10;62.40;;;;;;5012534;28;20034;-65